Time;durP1;ratioP1;P1;durP2;ratioP2;P2;SDS_P1;SDS_P2;PMS_P1;PMS_P2;Temp;Humidity;BMP_temperature;BMP_pressure;BME280_temperature;BME280_humidity;BME280_pressure;Samples;Min_cycle;Max_cycle;Signal;HPM_P1;HPM_P2
2024/03/03 00:01:35;;;;;;;;;;;;;;;9.15;100.00;100286.06;5010246;28;19921;-73
2024/03/03 00:04:01;;;;;;;;;;;;;;;9.02;100.00;100286.41;5010212;28;19964;-76
2024/03/03 00:06:26;;;;;;;;;;;;;;;8.84;100.00;100291.69;5010020;28;19922;-75
2024/03/03 00:08:51;;;;;;;;;;;;;;;8.61;100.00;100286.47;5010070;28;20377;-75
2024/03/03 00:11:17;;;;;;;;;;;;;;;8.50;100.00;100292.84;5018150;28;20353;-74
2024/03/03 00:13:42;;;;;;;;;;;;;;;8.45;100.00;100294.31;5018311;28;20372;-74
2024/03/03 00:16:08;;;;;;;;;;;;;;;8.35;100.00;100293.94;5004232;28;19913;-73
2024/03/03 00:18:37;;;;;;;;;;;;;;;8.37;100.00;100288.84;5023918;28;19992;-76
2024/03/03 00:21:03;;;;;;;;;;;;;;;8.42;100.00;100277.94;5020925;28;19924;-74
2024/03/03 00:23:29;;;;;;;;;;;;;;;8.46;100.00;100280.63;5018609;28;20011;-74
2024/03/03 00:25:54;;;;;;;;;;;;;;;8.55;100.00;100278.50;4998361;28;19924;-74
2024/03/03 00:28:20;;;;;;;;;;;;;;;8.61;100.00;100275.28;5019089;28;19913;-74
2024/03/03 00:30:45;;;;;;;;;;;;;;;8.62;100.00;100272.78;5018781;28;20081;-74
2024/03/03 00:33:11;;;;;;;;;;;;;;;8.69;100.00;100273.91;5017988;28;19953;-74
2024/03/03 00:35:36;;;;;;;;;;;;;;;8.76;100.00;100277.63;5019176;28;19924;-72
2024/03/03 00:38:01;;;;;;;;;;;;;;;8.83;100.00;100267.63;5020541;28;19917;-71
2024/03/03 00:40:27;;;;;;;;;;;;;;;8.89;100.00;100267.00;4980997;28;20404;-74
2024/03/03 00:42:52;;;;;;;;;;;;;;;8.94;100.00;100267.22;5024126;28;19917;-73
2024/03/03 00:45:17;;;;;;;;;;;;;;;8.95;100.00;100263.78;5017932;28;20011;-74
2024/03/03 00:47:44;;;;;;;;;;;;;;;8.92;100.00;100269.69;5025350;28;19928;-78
2024/03/03 00:50:10;;;;;;;;;;;;;;;8.82;100.00;100265.91;5019087;28;19921;-74
2024/03/03 00:52:35;;;;;;;;;;;;;;;8.79;100.00;100270.91;4982810;28;19925;-74
2024/03/03 00:55:00;;;;;;;;;;;;;;;8.80;100.00;100276.91;5018902;28;19948;-74
2024/03/03 00:57:26;;;;;;;;;;;;;;;8.79;100.00;100270.03;4999942;28;20309;-73
2024/03/03 00:59:51;;;;;;;;;;;;;;;8.78;100.00;100283.72;4983043;28;20059;-73
2024/03/03 01:02:17;;;;;;;;;;;;;;;8.66;100.00;100274.69;5023170;28;20376;-74
2024/03/03 01:04:42;;;;;;;;;;;;;;;8.50;100.00;100279.97;5021355;28;19925;-72
2024/03/03 01:07:07;;;;;;;;;;;;;;;8.39;100.00;100279.50;5023411;28;19917;-75
2024/03/03 01:09:33;;;;;;;;;;;;;;;8.27;100.00;100274.69;5018648;28;19925;-75
2024/03/03 01:11:58;;;;;;;;;;;;;;;8.16;100.00;100276.84;5013217;28;19924;-71
2024/03/03 01:14:23;;;;;;;;;;;;;;;8.07;100.00;100277.31;5012900;28;19921;-74
2024/03/03 01:16:49;;;;;;;;;;;;;;;8.05;100.00;100272.88;5013750;28;19913;-73
2024/03/03 01:19:14;;;;;;;;;;;;;;;8.00;100.00;100274.38;5012764;28;20324;-75
2024/03/03 01:21:39;;;;;;;;;;;;;;;7.93;100.00;100275.81;5012728;28;20660;-76
2024/03/03 01:24:05;;;;;;;;;;;;;;;7.71;100.00;100280.00;5012725;28;19978;-74
2024/03/03 01:26:31;;;;;;;;;;;;;;;7.38;100.00;100274.19;5012833;28;20590;-73
2024/03/03 01:28:56;;;;;;;;;;;;;;;7.22;100.00;100270.88;5012961;28;20308;-73
2024/03/03 01:31:21;;;;;;;;;;;;;;;7.21;100.00;100268.25;5012874;28;19967;-74
2024/03/03 01:33:47;;;;;;;;;;;;;;;7.23;100.00;100267.50;5012436;28;20003;-74
2024/03/03 01:36:13;;;;;;;;;;;;;;;7.25;100.00;100259.88;5012769;28;19964;-73
2024/03/03 01:38:38;;;;;;;;;;;;;;;7.31;100.00;100256.72;5012860;28;19925;-74
2024/03/03 01:41:04;;;;;;;;;;;;;;;7.33;100.00;100257.66;5013275;28;20281;-74
2024/03/03 01:43:29;;;;;;;;;;;;;;;7.36;100.00;100253.53;5012636;28;19975;-75
2024/03/03 01:45:54;;;;;;;;;;;;;;;7.36;100.00;100250.13;5012117;28;19917;-74
2024/03/03 01:48:20;;;;;;;;;;;;;;;7.33;100.00;100261.13;5012355;28;20368;-74
2024/03/03 01:50:45;;;;;;;;;;;;;;;7.28;100.00;100255.75;5012247;28;20380;-74
2024/03/03 01:53:12;;;;;;;;;;;;;;;7.24;100.00;100256.44;5012379;28;19934;-76
2024/03/03 01:55:38;;;;;;;;;;;;;;;7.09;100.00;100254.03;5012004;28;19987;-73
2024/03/03 01:58:04;;;;;;;;;;;;;;;7.05;100.00;100257.28;5012364;28;19948;-74
2024/03/03 02:00:32;;;;;;;;;;;;;;;7.05;100.00;100254.69;5012730;28;19957;-73
2024/03/03 02:02:58;;;;;;;;;;;;;;;7.06;100.00;100248.72;4986541;28;20009;-74
2024/03/03 02:05:23;;;;;;;;;;;;;;;6.99;100.00;100253.50;4979633;28;20416;-74
2024/03/03 02:07:49;;;;;;;;;;;;;;;6.93;100.00;100251.53;4979382;28;19917;-74
2024/03/03 02:10:15;;;;;;;;;;;;;;;6.77;100.00;100252.47;4980698;28;19922;-73
2024/03/03 02:12:45;;;;;;;;;;;;;;;6.68;100.00;100254.59;4977609;28;19985;-76
2024/03/03 02:15:10;;;;;;;;;;;;;;;6.58;100.00;100258.38;4983594;28;19924;-74
2024/03/03 02:17:36;;;;;;;;;;;;;;;6.50;100.00;100252.00;4971534;28;19917;-74
2024/03/03 02:20:01;;;;;;;;;;;;;;;6.46;100.00;100250.97;4979737;28;20012;-77
2024/03/03 02:22:26;;;;;;;;;;;;;;;6.48;100.00;100254.50;4983922;28;19914;-73
2024/03/03 02:24:52;;;;;;;;;;;;;;;6.47;100.00;100255.31;4975698;28;19957;-73
2024/03/03 02:27:17;;;;;;;;;;;;;;;6.47;100.00;100257.88;4980161;28;19918;-75
2024/03/03 02:29:43;;;;;;;;;;;;;;;6.41;100.00;100255.00;4979970;28;20509;-74
2024/03/03 02:32:08;;;;;;;;;;;;;;;6.38;100.00;100265.06;4979731;28;19942;-74
2024/03/03 02:34:33;;;;;;;;;;;;;;;6.36;100.00;100259.00;5001286;28;19983;-74
2024/03/03 02:36:59;;;;;;;;;;;;;;;6.33;100.00;100264.88;5011655;28;20423;-74
2024/03/03 02:39:24;;;;;;;;;;;;;;;6.41;100.00;100270.38;5011678;28;19918;-73
2024/03/03 02:41:50;;;;;;;;;;;;;;;6.54;100.00;100266.72;4997352;28;20023;-72
2024/03/03 02:44:15;;;;;;;;;;;;;;;6.69;100.00;100266.59;5011981;28;19917;-73
2024/03/03 02:46:41;;;;;;;;;;;;;;;6.79;100.00;100272.28;5011537;28;19971;-74
2024/03/03 02:49:06;;;;;;;;;;;;;;;6.85;100.00;100274.25;5011535;28;19917;-76
2024/03/03 02:51:31;;;;;;;;;;;;;;;6.94;100.00;100276.38;5011213;28;19925;-75
2024/03/03 02:53:56;;;;;;;;;;;;;;;6.96;100.00;100283.34;5011058;28;19913;-74
2024/03/03 02:56:22;;;;;;;;;;;;;;;6.95;100.00;100280.72;5011245;28;19917;-74
2024/03/03 02:58:47;;;;;;;;;;;;;;;6.90;100.00;100279.63;5011034;28;19913;-72
2024/03/03 03:01:12;;;;;;;;;;;;;;;6.81;100.00;100287.75;5010856;28;19917;-75
2024/03/03 03:03:38;;;;;;;;;;;;;;;6.77;100.00;100283.28;5012053;28;19920;-74
2024/03/03 03:06:07;;;;;;;;;;;;;;;6.73;100.00;100283.91;5011028;28;19924;-78
2024/03/03 03:08:32;;;;;;;;;;;;;;;6.68;100.00;100287.94;5010783;28;19921;-72
2024/03/03 03:10:57;;;;;;;;;;;;;;;6.59;100.00;100294.38;5011149;28;20072;-75
2024/03/03 03:13:23;;;;;;;;;;;;;;;6.59;100.00;100298.63;5010590;28;20419;-74
2024/03/03 03:15:48;;;;;;;;;;;;;;;6.52;100.00;100294.88;5011715;28;20344;-74
2024/03/03 03:18:13;;;;;;;;;;;;;;;6.48;100.00;100293.84;5010699;28;19921;-74
2024/03/03 03:20:39;;;;;;;;;;;;;;;6.36;100.00;100294.91;5011081;28;19953;-74
2024/03/03 03:23:04;;;;;;;;;;;;;;;6.34;100.00;100291.38;5010411;28;20270;-74
2024/03/03 03:25:29;;;;;;;;;;;;;;;6.36;100.00;100297.47;4996314;28;19940;-75
2024/03/03 03:27:55;;;;;;;;;;;;;;;6.34;100.00;100291.38;5010239;28;19918;-74
2024/03/03 03:30:20;;;;;;;;;;;;;;;6.27;100.00;100292.75;5010880;28;19917;-74
2024/03/03 03:32:45;;;;;;;;;;;;;;;6.11;100.00;100291.06;5010284;28;19917;-74
2024/03/03 03:35:11;;;;;;;;;;;;;;;6.01;100.00;100291.38;5010306;28;19923;-77
2024/03/03 03:37:37;;;;;;;;;;;;;;;5.87;100.00;100294.09;5010542;28;19913;-72
2024/03/03 03:40:09;;;;;;;;;;;;;;;5.82;100.00;100292.97;5010482;28;20012;-77
2024/03/03 03:42:35;;;;;;;;;;;;;;;5.62;100.00;100295.34;5010943;28;20408;-72
2024/03/03 03:45:00;;;;;;;;;;;;;;;5.50;100.00;100292.09;5010517;28;20016;-74
2024/03/03 03:47:25;;;;;;;;;;;;;;;5.40;100.00;100293.28;5010365;28;20305;-72
2024/03/03 03:49:51;;;;;;;;;;;;;;;5.31;100.00;100303.91;5010511;28;20344;-74
2024/03/03 03:52:16;;;;;;;;;;;;;;;5.26;100.00;100300.19;5011036;28;20587;-73
2024/03/03 03:54:42;;;;;;;;;;;;;;;5.27;100.00;100301.97;5009948;28;20332;-74
2024/03/03 03:57:07;;;;;;;;;;;;;;;5.26;100.00;100306.97;5010472;28;20339;-74
2024/03/03 03:59:32;;;;;;;;;;;;;;;5.36;100.00;100309.28;5010487;28;19975;-73
2024/03/03 04:02:03;;;;;;;;;;;;;;;5.50;100.00;100307.47;5010332;28;19929;-75
2024/03/03 04:04:29;;;;;;;;;;;;;;;5.65;100.00;100312.53;5010353;28;19940;-73
2024/03/03 04:06:54;;;;;;;;;;;;;;;5.75;100.00;100307.09;5010243;28;20288;-74
2024/03/03 04:09:19;;;;;;;;;;;;;;;5.87;100.00;100312.03;5005666;28;20023;-74
2024/03/03 04:11:45;;;;;;;;;;;;;;;5.96;100.00;100309.94;5000411;28;20011;-74
2024/03/03 04:14:10;;;;;;;;;;;;;;;5.89;100.00;100310.41;5010447;28;20350;-74
2024/03/03 04:16:35;;;;;;;;;;;;;;;5.75;100.00;100316.47;5010192;28;19932;-72
2024/03/03 04:19:01;;;;;;;;;;;;;;;5.56;100.00;100315.47;5010460;28;19922;-73
2024/03/03 04:21:26;;;;;;;;;;;;;;;5.52;100.00;100318.69;5009833;28;19909;-72
2024/03/03 04:23:51;;;;;;;;;;;;;;;5.23;100.00;100323.03;4982535;28;19917;-74
2024/03/03 04:26:17;;;;;;;;;;;;;;;4.90;100.00;100324.56;5009669;28;19913;-75
2024/03/03 04:28:42;;;;;;;;;;;;;;;4.90;100.00;100334.81;5009952;28;19975;-74
2024/03/03 04:31:08;;;;;;;;;;;;;;;4.88;100.00;100326.19;5010276;28;19913;-72
2024/03/03 04:33:34;;;;;;;;;;;;;;;4.87;100.00;100330.41;5009714;28;20011;-74
2024/03/03 04:35:59;;;;;;;;;;;;;;;4.99;100.00;100336.22;5010877;28;20403;-75
2024/03/03 04:38:25;;;;;;;;;;;;;;;5.01;100.00;100338.88;5012413;28;19917;-76
2024/03/03 04:40:50;;;;;;;;;;;;;;;4.67;100.00;100352.25;5013861;28;19925;-74
2024/03/03 04:43:15;;;;;;;;;;;;;;;4.73;100.00;100342.41;5014136;28;19914;-74
2024/03/03 04:45:41;;;;;;;;;;;;;;;4.88;100.00;100344.09;4991315;28;19917;-73
2024/03/03 04:48:06;;;;;;;;;;;;;;;5.06;100.00;100351.94;5014205;28;19917;-75
2024/03/03 04:50:31;;;;;;;;;;;;;;;5.03;100.00;100352.63;5013630;28;19922;-74
2024/03/03 04:52:57;;;;;;;;;;;;;;;5.06;100.00;100352.81;5013613;28;19913;-74
2024/03/03 04:55:22;;;;;;;;;;;;;;;5.14;100.00;100359.25;5013616;28;19921;-74
2024/03/03 04:57:47;;;;;;;;;;;;;;;5.20;100.00;100348.50;5012686;28;19921;-75
2024/03/03 05:00:14;;;;;;;;;;;;;;;5.18;100.00;100361.19;5011518;28;19928;-75
2024/03/03 05:02:39;;;;;;;;;;;;;;;5.08;100.00;100363.13;5013035;28;19925;-74
2024/03/03 05:05:06;;;;;;;;;;;;;;;5.05;100.00;100373.19;5013131;28;19917;-77
2024/03/03 05:07:32;;;;;;;;;;;;;;;4.99;100.00;100377.16;5013476;28;19917;-73
2024/03/03 05:09:57;;;;;;;;;;;;;;;4.70;100.00;100371.22;5005825;28;19979;-74
2024/03/03 05:12:23;;;;;;;;;;;;;;;4.62;100.00;100386.91;5013782;28;19924;-74
2024/03/03 05:14:48;;;;;;;;;;;;;;;4.64;100.00;100383.66;5012985;28;19917;-74
2024/03/03 05:17:14;;;;;;;;;;;;;;;4.59;100.00;100387.63;5013244;28;19917;-74
2024/03/03 05:19:39;;;;;;;;;;;;;;;4.53;100.00;100387.25;5013567;28;19953;-74
2024/03/03 05:22:05;;;;;;;;;;;;;;;4.56;100.00;100389.09;5013025;28;19925;-78
2024/03/03 05:24:30;;;;;;;;;;;;;;;4.68;100.00;100394.94;5013024;28;19917;-74
2024/03/03 05:26:55;;;;;;;;;;;;;;;4.75;100.00;100396.19;5013100;28;19950;-74
2024/03/03 05:29:21;;;;;;;;;;;;;;;4.84;100.00;100391.63;5013166;28;19963;-74
2024/03/03 05:31:46;;;;;;;;;;;;;;;4.92;100.00;100395.53;5012856;28;19917;-75
2024/03/03 05:34:12;;;;;;;;;;;;;;;4.97;100.00;100399.22;5014096;28;19913;-74
2024/03/03 05:36:44;;;;;;;;;;;;;;;4.98;100.00;100411.22;5013511;28;19917;-74
2024/03/03 05:39:10;;;;;;;;;;;;;;;4.99;100.00;100407.00;5013420;28;19924;-74
2024/03/03 05:41:36;;;;;;;;;;;;;;;5.05;100.00;100409.00;5013009;28;19921;-72
2024/03/03 05:44:01;;;;;;;;;;;;;;;5.12;100.00;100403.47;5012191;28;19917;-75
2024/03/03 05:46:27;;;;;;;;;;;;;;;5.19;100.00;100405.59;5011018;28;20432;-73
2024/03/03 05:48:53;;;;;;;;;;;;;;;5.27;100.00;100400.88;5013266;28;19917;-75
2024/03/03 05:51:18;;;;;;;;;;;;;;;5.33;100.00;100403.81;5012547;28;19920;-73
2024/03/03 05:53:43;;;;;;;;;;;;;;;5.38;100.00;100396.41;5013011;28;19924;-74
2024/03/03 05:56:12;;;;;;;;;;;;;;;5.46;100.00;100403.72;5013231;28;19957;-73
2024/03/03 05:58:39;;;;;;;;;;;;;;;5.56;100.00;100404.22;5012370;28;19917;-74
2024/03/03 06:01:04;;;;;;;;;;;;;;;5.60;100.00;100404.47;4981385;28;19917;-74
2024/03/03 06:03:29;;;;;;;;;;;;;;;5.59;100.00;100402.72;4978908;28;19914;-76
2024/03/03 06:05:55;;;;;;;;;;;;;;;5.54;100.00;100408.38;4980233;28;20001;-73
2024/03/03 06:08:20;;;;;;;;;;;;;;;5.46;100.00;100411.38;4975778;28;19949;-74
2024/03/03 06:10:46;;;;;;;;;;;;;;;5.41;100.00;100405.13;4980334;28;19917;-73
2024/03/03 06:13:11;;;;;;;;;;;;;;;5.40;100.00;100408.47;4983600;28;20013;-74
2024/03/03 06:15:38;;;;;;;;;;;;;;;5.40;100.00;100405.91;4982269;28;19964;-74
2024/03/03 06:18:04;;;;;;;;;;;;;;;5.52;100.00;100410.88;4984467;28;19972;-76
2024/03/03 06:20:29;;;;;;;;;;;;;;;5.57;100.00;100409.44;4977721;28;19969;-77
2024/03/03 06:22:54;;;;;;;;;;;;;;;5.64;100.00;100408.09;4979128;28;20398;-74
2024/03/03 06:25:20;;;;;;;;;;;;;;;5.60;100.00;100424.97;4980729;28;19960;-72
2024/03/03 06:27:45;;;;;;;;;;;;;;;5.57;100.00;100419.69;4963290;28;19972;-73
2024/03/03 06:30:10;;;;;;;;;;;;;;;5.69;100.00;100408.34;4981329;28;19921;-74
2024/03/03 06:32:36;;;;;;;;;;;;;;;5.81;100.00;100398.78;5000711;28;19913;-78
2024/03/03 06:35:02;;;;;;;;;;;;;;;5.94;100.00;100401.22;5011985;28;20300;-77
2024/03/03 06:37:27;;;;;;;;;;;;;;;5.99;100.00;100398.94;5001516;28;19968;-71
2024/03/03 06:39:54;;;;;;;;;;;;;;;6.06;100.00;100397.59;5012005;28;19919;-72
2024/03/03 06:42:19;;;;;;;;;;;;;;;6.07;100.00;100394.22;4983032;28;20356;-74
2024/03/03 06:44:45;;;;;;;;;;;;;;;6.15;100.00;100395.53;5011741;28;19948;-76
2024/03/03 06:47:10;;;;;;;;;;;;;;;6.24;100.00;100395.13;5012023;28;19913;-72
2024/03/03 06:49:35;;;;;;;;;;;;;;;6.31;100.00;100387.84;5012155;28;19913;-74
2024/03/03 06:52:02;;;;;;;;;;;;;;;6.43;100.00;100397.88;5011758;28;19917;-73
2024/03/03 06:54:28;;;;;;;;;;;;;;;6.50;100.00;100393.94;5011636;28;19924;-77
2024/03/03 06:56:53;;;;;;;;;;;;;;;6.57;100.00;100388.31;4982793;28;19917;-73
2024/03/03 06:59:18;;;;;;;;;;;;;;;6.65;100.00;100393.84;5011762;28;19921;-74
2024/03/03 07:01:44;;;;;;;;;;;;;;;6.70;100.00;100386.38;5011443;28;19913;-74
2024/03/03 07:06:41;;;;;;;;;;;;;;;6.89;100.00;100391.66;5011438;28;20019;-73
2024/03/03 07:09:08;;;;;;;;;;;;;;;6.95;100.00;100391.06;5011234;28;19960;-74
2024/03/03 07:11:33;;;;;;;;;;;;;;;7.00;100.00;100391.31;5010957;28;20477;-73
2024/03/03 07:13:58;;;;;;;;;;;;;;;7.03;100.00;100392.34;5011096;28;19921;-73
2024/03/03 07:16:24;;;;;;;;;;;;;;;7.15;100.00;100391.19;5011712;28;19917;-74
2024/03/03 07:18:49;;;;;;;;;;;;;;;7.24;100.00;100389.97;4999281;28;19926;-74
2024/03/03 07:21:14;;;;;;;;;;;;;;;7.35;100.00;100387.94;5010983;28;19914;-74
2024/03/03 07:23:40;;;;;;;;;;;;;;;7.46;100.00;100388.41;5010977;28;19917;-74
2024/03/03 07:26:05;;;;;;;;;;;;;;;7.56;100.00;100397.44;5010744;28;19924;-76
2024/03/03 07:28:31;;;;;;;;;;;;;;;7.68;100.00;100398.03;5010552;28;19917;-74
2024/03/03 07:30:57;;;;;;;;;;;;;;;7.85;100.00;100397.94;5011044;28;19928;-76
2024/03/03 07:33:22;;;;;;;;;;;;;;;7.98;100.00;100400.28;5010769;28;19918;-74
2024/03/03 07:35:47;;;;;;;;;;;;;;;7.94;100.00;100399.25;5010861;28;20408;-74
2024/03/03 07:38:14;;;;;;;;;;;;;;;7.73;100.00;100400.84;5011262;28;19980;-76
2024/03/03 07:40:39;;;;;;;;;;;;;;;7.65;100.00;100400.47;5010530;28;19913;-75
2024/03/03 07:43:05;;;;;;;;;;;;;;;7.83;100.00;100402.16;5010797;28;20015;-75
2024/03/03 07:45:30;;;;;;;;;;;;;;;8.02;100.00;100407.31;5010574;28;19918;-72
2024/03/03 07:47:56;;;;;;;;;;;;;;;8.18;100.00;100408.91;5010409;28;19917;-73
2024/03/03 07:50:21;;;;;;;;;;;;;;;8.16;100.00;100409.66;5011505;28;19921;-74
2024/03/03 07:52:46;;;;;;;;;;;;;;;8.16;100.00;100407.97;5010696;28;19918;-71
2024/03/03 07:55:12;;;;;;;;;;;;;;;8.15;100.00;100413.94;5010656;28;19924;-77
2024/03/03 07:57:37;;;;;;;;;;;;;;;8.34;100.00;100409.63;5010849;28;20411;-74
2024/03/03 08:00:06;;;;;;;;;;;;;;;8.44;100.00;100422.06;5000622;28;20337;-75
2024/03/03 08:02:32;;;;;;;;;;;;;;;8.55;100.00;100418.31;4980023;28;19999;-73
2024/03/03 08:04:57;;;;;;;;;;;;;;;8.76;100.00;100411.47;5010426;28;19963;-74
2024/03/03 08:07:24;;;;;;;;;;;;;;;8.98;100.00;100415.84;5010519;28;19964;-75
2024/03/03 08:09:50;;;;;;;;;;;;;;;9.23;100.00;100420.31;5010082;28;19984;-73
2024/03/03 08:12:15;;;;;;;;;;;;;;;9.36;100.00;100419.16;4966434;28;20381;-73
2024/03/03 08:14:40;;;;;;;;;;;;;;;9.44;100.00;100417.75;5016974;28;19968;-74
2024/03/03 08:17:06;;;;;;;;;;;;;;;9.48;100.00;100422.22;5017746;28;19913;-71
2024/03/03 08:19:31;;;;;;;;;;;;;;;9.54;100.00;100425.06;5016710;28;19916;-72
2024/03/03 08:21:56;;;;;;;;;;;;;;;9.47;100.00;100419.56;5017170;28;19975;-73
2024/03/03 08:24:22;;;;;;;;;;;;;;;9.57;100.00;100431.13;5016819;28;19913;-73
2024/03/03 08:26:48;;;;;;;;;;;;;;;9.68;100.00;100417.88;5016540;28;19959;-74
2024/03/03 08:29:13;;;;;;;;;;;;;;;9.79;100.00;100418.25;5016523;28;19921;-73
2024/03/03 08:31:41;;;;;;;;;;;;;;;9.76;100.00;100428.47;5016611;28;19953;-74
2024/03/03 08:34:07;;;;;;;;;;;;;;;9.79;100.00;100431.16;5016658;28;20382;-76
2024/03/03 08:36:32;;;;;;;;;;;;;;;9.86;100.00;100427.13;5000085;28;19925;-76
2024/03/03 08:38:58;;;;;;;;;;;;;;;9.95;100.00;100431.78;5016725;28;19968;-73
2024/03/03 08:41:23;;;;;;;;;;;;;;;10.12;100.00;100429.81;5017095;28;19928;-74
2024/03/03 08:43:48;;;;;;;;;;;;;;;10.14;100.00;100429.09;5017228;28;19914;-79
2024/03/03 08:46:13;;;;;;;;;;;;;;;10.18;100.00;100425.78;5016431;28;19924;-71
2024/03/03 08:48:39;;;;;;;;;;;;;;;10.22;100.00;100439.69;5016477;28;19923;-77
2024/03/03 08:51:08;;;;;;;;;;;;;;;10.20;100.00;100428.44;5011225;28;19910;-78
2024/03/03 08:53:33;;;;;;;;;;;;;;;10.31;100.00;100428.84;5016140;28;19983;-73
2024/03/03 08:55:59;;;;;;;;;;;;;;;10.39;100.00;100430.00;5016471;28;20396;-73
2024/03/03 08:58:26;;;;;;;;;;;;;;;10.43;100.00;100436.16;5016181;28;19913;-73
2024/03/03 09:00:51;;;;;;;;;;;;;;;10.37;100.00;100436.84;5016232;28;19933;-73
2024/03/03 09:03:17;;;;;;;;;;;;;;;10.45;100.00;100435.41;5016491;28;19917;-73
2024/03/03 09:05:43;;;;;;;;;;;;;;;10.61;100.00;100430.81;5017038;28;20020;-74
2024/03/03 09:08:08;;;;;;;;;;;;;;;10.73;100.00;100432.94;5016501;28;20007;-75
2024/03/03 09:10:34;;;;;;;;;;;;;;;10.65;100.00;100424.94;5016636;28;19925;-73
2024/03/03 09:12:59;;;;;;;;;;;;;;;10.70;100.00;100427.69;5016281;28;19921;-73
2024/03/03 09:15:24;;;;;;;;;;;;;;;10.83;100.00;100428.16;5017205;28;19913;-73
2024/03/03 09:17:49;;;;;;;;;;;;;;;10.76;100.00;100431.34;5016695;28;19909;-72
2024/03/03 09:20:15;;;;;;;;;;;;;;;10.89;100.00;100418.88;5016369;28;19921;-73
2024/03/03 09:22:40;;;;;;;;;;;;;;;10.95;100.00;100419.09;5016419;28;19936;-72
2024/03/03 09:25:06;;;;;;;;;;;;;;;11.05;100.00;100418.56;5013692;28;20274;-73
2024/03/03 09:27:31;;;;;;;;;;;;;;;11.15;100.00;100414.59;5013138;28;19925;-73
2024/03/03 09:29:57;;;;;;;;;;;;;;;11.15;100.00;100420.66;5013028;28;19921;-74
2024/03/03 09:32:22;;;;;;;;;;;;;;;11.28;100.00;100421.06;5012918;28;20389;-72
2024/03/03 09:34:49;;;;;;;;;;;;;;;11.33;100.00;100415.22;5012314;28;19917;-76
2024/03/03 09:37:15;;;;;;;;;;;;;;;11.43;100.00;100416.41;5012686;28;19921;-73
2024/03/03 09:39:40;;;;;;;;;;;;;;;11.47;100.00;100415.66;5013105;28;19944;-75
2024/03/03 09:42:05;;;;;;;;;;;;;;;11.41;100.00;100420.63;5013519;28;20296;-74
2024/03/03 09:44:40;;;;;;;;;;;;;;;11.40;100.00;100411.13;5012866;28;19964;-73
2024/03/03 09:47:07;;;;;;;;;;;;;;;11.38;100.00;100417.97;5012591;28;19928;-79
2024/03/03 09:49:32;;;;;;;;;;;;;;;11.33;100.00;100414.34;5012823;28;20020;-72
2024/03/03 09:51:59;;;;;;;;;;;;;;;11.31;100.00;100410.81;5012975;28;20052;-72
2024/03/03 09:54:25;;;;;;;;;;;;;;;11.26;100.00;100415.81;5012699;28;19920;-74
2024/03/03 09:56:51;;;;;;;;;;;;;;;11.24;100.00;100414.03;5013037;28;19917;-74
2024/03/03 09:59:17;;;;;;;;;;;;;;;11.26;100.00;100415.81;5012511;28;19920;-74
2024/03/03 10:01:52;;;;;;;;;;;;;;;11.17;100.00;100420.69;5012648;28;20012;-74
2024/03/03 10:04:18;;;;;;;;;;;;;;;11.24;100.00;100416.59;5011916;28;19918;-73
2024/03/03 10:06:44;;;;;;;;;;;;;;;11.34;100.00;100416.09;5013152;28;19914;-71
2024/03/03 10:09:15;;;;;;;;;;;;;;;11.32;100.00;100413.44;5012258;28;19922;-71
2024/03/03 10:11:42;;;;;;;;;;;;;;;11.42;100.00;100414.63;5012224;28;20388;-73
2024/03/03 10:14:14;;;;;;;;;;;;;;;11.41;100.00;100412.88;5012141;28;20016;-79
2024/03/03 10:16:40;;;;;;;;;;;;;;;11.49;100.00;100405.38;5012973;28;19920;-73
2024/03/03 10:19:06;;;;;;;;;;;;;;;11.56;100.00;100411.63;5003717;28;19928;-75
2024/03/03 10:21:36;;;;;;;;;;;;;;;11.54;100.00;100402.94;5012057;28;19968;-73
2024/03/03 10:24:33;;;;;;;;;;;;;;;11.46;100.00;100410.44;4966374;28;19996;-73
2024/03/03 10:27:00;;;;;;;;;;;;;;;11.38;100.00;100407.63;4944468;28;19918;-73
2024/03/03 10:29:27;;;;;;;;;;;;;;;11.32;100.00;100402.25;4928644;28;19965;-71
2024/03/03 10:31:55;;;;;;;;;;;;;;;11.31;100.00;100398.78;4970162;28;20012;-72
2024/03/03 10:34:21;;;;;;;;;;;;;;;11.35;100.00;100401.47;4970199;28;20428;-74
2024/03/03 10:36:47;;;;;;;;;;;;;;;11.34;100.00;100400.59;4969914;28;19925;-72
2024/03/03 10:39:12;;;;;;;;;;;;;;;11.41;100.00;100397.34;4970201;28;19918;-73
2024/03/03 10:41:38;;;;;;;;;;;;;;;11.48;100.00;100396.72;4970340;28;19932;-74
2024/03/03 10:44:04;;;;;;;;;;;;;;;11.53;100.00;100393.44;4970076;28;21123;-75
2024/03/03 10:46:30;;;;;;;;;;;;;;;11.55;100.00;100390.06;4970799;28;19981;-73
2024/03/03 10:48:55;;;;;;;;;;;;;;;11.62;100.00;100378.19;4969902;28;19941;-73
2024/03/03 10:51:21;;;;;;;;;;;;;;;11.64;100.00;100382.59;4970778;28;20325;-73
2024/03/03 10:53:51;;;;;;;;;;;;;;;11.62;100.00;100375.63;4970012;28;20008;-72
2024/03/03 10:56:17;;;;;;;;;;;;;;;11.68;100.00;100378.41;4969754;28;19925;-73
2024/03/03 10:58:44;;;;;;;;;;;;;;;11.66;100.00;100372.28;4969747;28;19918;-72
2024/03/03 11:01:09;;;;;;;;;;;;;;;11.54;100.00;100375.38;4969745;28;20012;-73
2024/03/03 11:03:35;;;;;;;;;;;;;;;11.49;100.00;100371.78;5001427;28;20008;-73
2024/03/03 11:06:04;;;;;;;;;;;;;;;11.58;100.00;100368.59;5011299;28;19967;-76
2024/03/03 11:08:30;;;;;;;;;;;;;;;11.70;100.00;100366.41;5011351;28;20313;-73
2024/03/03 11:11:01;;;;;;;;;;;;;;;11.76;100.00;100365.69;5018252;28;20012;-74
2024/03/03 11:13:29;;;;;;;;;;;;;;;11.78;100.00;100372.66;5018152;28;19924;-77
2024/03/03 11:15:55;;;;;;;;;;;;;;;11.73;100.00;100371.66;5020211;28;19917;-73
2024/03/03 11:18:24;;;;;;;;;;;;;;;11.83;100.00;100365.06;5001126;28;19913;-73
2024/03/03 11:20:52;;;;;;;;;;;;;;;11.91;100.00;100362.69;5021036;28;19917;-75
2024/03/03 11:23:48;;;;;;;;;;;;;;;11.89;100.00;100356.63;5010370;28;20377;-73
2024/03/03 11:26:27;;;;;;;;;;;;;;;11.86;100.00;100353.91;4956142;28;20088;-73
2024/03/03 11:28:59;;;;;;;;;;;;;;;11.79;100.00;100347.69;4963407;28;19925;-74
2024/03/03 11:31:25;;;;;;;;;;;;;;;11.79;100.00;100351.16;4956303;28;19915;-74
2024/03/03 11:33:52;;;;;;;;;;;;;;;11.81;100.00;100351.19;4955077;28;19965;-74
2024/03/03 11:36:18;;;;;;;;;;;;;;;11.85;100.00;100350.47;4958185;28;19953;-73
2024/03/03 11:38:43;;;;;;;;;;;;;;;11.97;100.00;100349.97;4943386;28;19965;-76
2024/03/03 11:41:11;;;;;;;;;;;;;;;12.04;100.00;100348.47;4957032;28;19940;-74
2024/03/03 11:43:46;;;;;;;;;;;;;;;12.10;100.00;100348.59;4962623;28;19918;-74
2024/03/03 11:46:31;;;;;;;;;;;;;;;12.11;100.00;100343.50;4955303;28;19953;-73
2024/03/03 11:49:00;;;;;;;;;;;;;;;12.00;100.00;100339.72;4949632;28;20013;-78
2024/03/03 11:51:28;;;;;;;;;;;;;;;11.94;100.00;100339.50;4967590;28;20034;-73
2024/03/03 11:54:00;;;;;;;;;;;;;;;11.88;100.00;100337.59;4957423;28;20378;-74
2024/03/03 11:56:29;;;;;;;;;;;;;;;12.02;100.00;100339.75;4957605;28;19918;-74
2024/03/03 11:58:59;;;;;;;;;;;;;;;12.12;100.00;100337.50;4957896;28;19953;-73
2024/03/03 12:01:28;;;;;;;;;;;;;;;12.14;100.00;100346.16;4951241;28;20484;-75
2024/03/03 12:03:53;;;;;;;;;;;;;;;12.26;100.00;100334.38;5018999;28;19917;-72
2024/03/03 12:06:19;;;;;;;;;;;;;;;12.39;100.00;100333.91;5020216;28;20626;-73
2024/03/03 12:08:48;;;;;;;;;;;;;;;12.40;100.00;100335.66;5020475;28;20281;-72
2024/03/03 12:11:14;;;;;;;;;;;;;;;12.36;100.00;100336.41;4997034;28;19924;-73
2024/03/03 12:13:39;;;;;;;;;;;;;;;12.39;100.00;100338.22;5010260;28;19921;-73
2024/03/03 12:16:05;;;;;;;;;;;;;;;12.51;100.00;100332.47;5011059;28;19967;-75
2024/03/03 12:18:30;;;;;;;;;;;;;;;12.57;100.00;100330.06;5010022;28;19909;-71
2024/03/03 12:20:57;;;;;;;;;;;;;;;12.49;100.00;100323.81;5010542;28;19924;-74
2024/03/03 12:23:22;;;;;;;;;;;;;;;12.52;100.00;100326.47;5010550;28;19917;-74
2024/03/03 12:25:48;;;;;;;;;;;;;;;12.54;100.00;100324.81;5010332;28;19924;-73
2024/03/03 12:28:13;;;;;;;;;;;;;;;12.53;100.00;100325.63;5009986;28;19921;-71
2024/03/03 12:30:38;;;;;;;;;;;;;;;12.68;100.00;100322.56;5009971;28;19920;-76